Time;durP1;ratioP1;P1;durP2;ratioP2;P2;SDS_P1;SDS_P2;PMS_P1;PMS_P2;Temp;Humidity;BMP_temperature;BMP_pressure;BME280_temperature;BME280_humidity;BME280_pressure;Samples;Min_cycle;Max_cycle;Signal;HPM_P1;HPM_P2
2023/09/29 00:01:55;;;;;;;13.55;5.32;;;;;;;18.09;72.31;101463.63;5105563;28;20436;-67
2023/09/29 00:04:21;;;;;;;16.75;5.32;;;;;;;18.11;72.29;101464.16;5107934;28;20082;-67
2023/09/29 00:06:47;;;;;;;11.48;4.53;;;;;;;18.11;71.82;101461.34;5091145;28;20071;-66
2023/09/29 00:09:12;;;;;;;14.38;4.70;;;;;;;18.15;72.16;101454.84;5092324;28;20032;-66
2023/09/29 00:11:38;;;;;;;10.85;4.70;;;;;;;18.13;72.10;101461.91;5091095;28;20538;-67
2023/09/29 00:14:03;;;;;;;11.55;4.65;;;;;;;18.14;72.28;101463.56;5091455;28;20028;-66
2023/09/29 00:16:28;;;;;;;15.50;5.00;;;;;;;18.13;72.18;101461.91;5092712;28;20028;-67
2023/09/29 00:18:55;;;;;;;13.23;4.57;;;;;;;18.13;72.32;101461.91;5092463;28;20080;-66
2023/09/29 00:21:20;;;;;;;14.00;5.57;;;;;;;18.11;72.40;101458.53;5099682;28;20026;-66
2023/09/29 00:23:45;;;;;;;13.40;5.13;;;;;;;18.10;72.54;101457.69;5112345;28;20043;-66
2023/09/29 00:26:11;;;;;;;13.80;5.30;;;;;;;18.14;72.45;101463.56;5097109;28;20028;-66
2023/09/29 00:28:36;;;;;;;14.57;4.68;;;;;;;18.17;72.46;101463.00;5091826;28;20024;-66
2023/09/29 00:31:06;;;;;;;13.27;4.95;;;;;;;18.16;72.71;101461.34;5091807;28;20039;-66
2023/09/29 00:33:35;;;;;;;13.32;4.97;;;;;;;18.14;72.86;101461.59;5090333;28;20502;-66
2023/09/29 00:36:00;;;;;;;8.30;4.47;;;;;;;18.17;72.58;101456.56;5091828;28;20036;-66
2023/09/29 00:38:26;;;;;;;16.38;5.10;;;;;;;18.20;72.45;101456.81;5096636;28;20098;-66
2023/09/29 00:40:51;;;;;;;11.77;4.90;;;;;;;18.19;72.71;101449.50;5111240;28;20035;-66
2023/09/29 00:43:16;;;;;;;12.48;4.75;;;;;;;18.19;72.62;101449.50;5111977;28;20118;-66
2023/09/29 00:45:43;;;;;;;8.15;4.40;;;;;;;18.20;72.57;101451.19;5112020;28;20068;-66
2023/09/29 00:48:12;;;;;;;10.73;4.78;;;;;;;18.18;72.89;101445.00;5094394;28;20085;-66
2023/09/29 00:50:38;;;;;;;9.45;4.50;;;;;;;18.17;72.73;101445.31;5091538;28;20028;-66
2023/09/29 00:53:11;;;;;;;8.73;4.55;;;;;;;18.15;72.89;101443.59;5091503;28;20040;-66
2023/09/29 00:55:40;;;;;;;10.88;4.95;;;;;;;18.14;73.06;101430.69;5098969;28;20046;-66
2023/09/29 00:58:06;;;;;;;8.43;4.40;;;;;;;18.16;72.86;101441.66;5098992;28;20047;-66
2023/09/29 01:00:40;;;;;;;11.98;4.72;;;;;;;18.18;72.86;101442.19;5105339;28;20432;-66
2023/09/29 01:03:09;;;;;;;10.48;4.13;;;;;;;18.19;72.76;101440.22;5094582;28;20035;-66
2023/09/29 01:05:36;;;;;;;9.63;4.57;;;;;;;18.20;72.79;101433.50;5090642;28;20154;-66
2023/09/29 01:08:04;;;;;;;8.85;4.70;;;;;;;18.18;72.69;101435.75;5101435;28;20122;-66
2023/09/29 01:10:29;;;;;;;10.82;4.28;;;;;;;18.20;72.68;101425.06;5092273;28;20039;-66
2023/09/29 01:12:55;;;;;;;8.40;4.07;;;;;;;18.22;72.55;101420.81;5094189;28;20020;-66
2023/09/29 01:15:23;;;;;;;9.05;3.95;;;;;;;18.21;72.56;101418.31;5107585;28;20027;-66
2023/09/29 01:17:48;;;;;;;9.32;4.50;;;;;;;18.17;72.52;101422.84;5091482;28;20031;-66
2023/09/29 01:20:25;;;;;;;11.77;4.50;;;;;;;18.17;72.33;101417.22;5090905;28;20031;-66
2023/09/29 01:22:50;;;;;;;8.73;4.05;;;;;;;18.15;72.66;101417.47;5090256;28;20464;-66
2023/09/29 01:25:17;;;;;;;10.95;4.75;;;;;;;18.13;72.54;101412.16;5090905;28;20042;-66
2023/09/29 01:27:42;;;;;;;6.82;3.95;;;;;;;18.12;72.78;101421.75;5092793;28;20538;-66
2023/09/29 01:30:09;;;;;;;13.40;4.30;;;;;;;18.18;72.27;101414.09;5090906;28;20138;-66
2023/09/29 01:32:35;;;;;;;10.18;4.43;;;;;;;18.18;72.21;101410.47;5109399;28;20395;-67
2023/09/29 01:35:02;;;;;;;8.18;4.00;;;;;;;18.18;72.14;101407.66;5107246;28;20042;-66
2023/09/29 01:37:28;;;;;;;8.45;4.18;;;;;;;18.15;72.44;101398.66;5106516;28;20379;-66
2023/09/29 01:39:53;;;;;;;9.10;4.18;;;;;;;18.13;72.43;101389.69;5090949;28;20012;-66
2023/09/29 01:42:19;;;;;;;11.07;4.47;;;;;;;18.13;72.07;101386.88;5096364;28;20040;-66
2023/09/29 01:44:44;;;;;;;7.90;4.35;;;;;;;18.14;72.02;101379.28;5110413;28;20042;-66
2023/09/29 01:47:09;;;;;;;9.73;4.40;;;;;;;18.15;71.87;101387.41;5106705;28;20032;-66
2023/09/29 01:49:35;;;;;;;7.93;3.72;;;;;;;18.15;71.89;101392.19;5109217;28;20037;-66
2023/09/29 01:52:00;;;;;;;11.63;3.63;;;;;;;18.16;71.69;101396.72;5102291;28;20024;-66
2023/09/29 01:54:28;;;;;;;6.32;3.67;;;;;;;18.14;71.57;101382.09;5110955;28;20467;-66
2023/09/29 01:57:03;;;;;;;10.80;3.95;;;;;;;18.17;71.61;101381.53;5104125;28;20032;-67
2023/09/29 01:59:28;;;;;;;10.13;3.80;;;;;;;18.12;71.52;101381.56;5098260;28;20016;-66
2023/09/29 02:01:57;;;;;;;6.80;3.58;;;;;;;18.12;71.57;101379.59;5093686;28;20419;-66
2023/09/29 02:04:22;;;;;;;8.05;3.60;;;;;;;18.12;71.25;101370.34;5096623;28;20032;-67
2023/09/29 02:06:50;;;;;;;6.28;3.10;;;;;;;18.15;71.48;101364.09;5102053;28;20376;-66
2023/09/29 02:09:16;;;;;;;6.30;3.22;;;;;;;18.18;71.29;101363.53;5097604;28;20036;-66
2023/09/29 02:11:44;;;;;;;9.68;3.20;;;;;;;18.15;71.20;101359.31;5089706;28;20032;-66
2023/09/29 02:14:09;;;;;;;5.38;2.92;;;;;;;18.10;71.12;101362.19;5090799;28;20472;-66
2023/09/29 02:16:34;;;;;;;5.93;3.15;;;;;;;18.13;71.24;101370.03;5100557;28;20045;-66
2023/09/29 02:19:01;;;;;;;5.95;3.28;;;;;;;18.12;71.21;101373.16;5110227;28;20031;-66
2023/09/29 02:21:31;;;;;;;5.28;3.03;;;;;;;18.11;71.21;101365.81;5111038;28;20034;-66
2023/09/29 02:24:00;;;;;;;5.10;2.97;;;;;;;18.15;70.83;101356.50;5100482;28;20541;-66
2023/09/29 02:26:28;;;;;;;4.60;2.85;;;;;;;18.13;70.86;101364.41;5095174;28;20042;-66
2023/09/29 02:28:55;;;;;;;6.85;3.25;;;;;;;18.12;70.68;101356.28;5097049;28;20042;-66
2023/09/29 02:31:20;;;;;;;6.43;3.10;;;;;;;18.17;70.72;101350.63;5101638;28;20028;-66
2023/09/29 02:33:45;;;;;;;7.43;3.03;;;;;;;18.18;70.54;101349.47;5097753;28;20135;-66
2023/09/29 02:36:10;;;;;;;5.50;2.80;;;;;;;18.19;70.40;101353.97;5098833;28;20059;-66
2023/09/29 02:38:36;;;;;;;6.15;3.22;;;;;;;18.18;70.60;101355.09;5093996;28;20115;-66
2023/09/29 02:41:02;;;;;;;6.63;3.00;;;;;;;18.14;70.47;101343.59;5093412;28;20103;-66
2023/09/29 02:43:32;;;;;;;5.60;3.00;;;;;;;18.17;70.32;101333.75;5093842;28;20550;-66
2023/09/29 02:45:58;;;;;;;7.07;3.38;;;;;;;18.16;70.37;101334.91;5093524;28;20036;-66
2023/09/29 02:48:23;;;;;;;5.45;2.92;;;;;;;18.20;70.30;101332.34;5093025;28;20031;-66
2023/09/29 02:50:51;;;;;;;7.50;3.20;;;;;;;18.19;70.40;101322.22;5097892;28;20031;-66
2023/09/29 02:53:16;;;;;;;7.53;2.85;;;;;;;18.20;70.23;101333.19;5099112;28;20074;-66
2023/09/29 02:55:44;;;;;;;6.28;3.67;;;;;;;18.18;70.36;101329.81;5092391;28;20487;-66
2023/09/29 02:58:09;;;;;;;5.38;2.65;;;;;;;18.23;70.31;101321.34;5094180;28;20110;-66
2023/09/29 03:00:35;;;;;;;5.57;3.25;;;;;;;18.21;70.48;101317.16;5092845;28;20099;-67
2023/09/29 03:03:01;;;;;;;7.03;3.00;;;;;;;18.21;70.62;101320.81;5103549;28;20055;-66
2023/09/29 03:05:27;;;;;;;6.18;2.85;;;;;;;18.21;70.48;101311.53;5093499;28;20032;-66
2023/09/29 03:07:55;;;;;;;6.82;2.90;;;;;;;18.21;70.59;101317.16;5095025;28;20042;-66
2023/09/29 03:10:21;;;;;;;6.43;3.17;;;;;;;18.21;70.64;101317.16;5106235;28;20020;-66
2023/09/29 03:12:46;;;;;;;7.35;3.10;;;;;;;18.19;70.75;101314.63;5091025;28;20035;-67
2023/09/29 03:15:16;;;;;;;6.15;3.00;;;;;;;18.22;71.00;101314.03;5094993;28;20038;-66
2023/09/29 03:17:46;;;;;;;5.97;3.17;;;;;;;18.16;71.23;101315.25;5096362;28;20032;-66
2023/09/29 03:20:12;;;;;;;7.30;3.40;;;;;;;18.21;71.08;101317.16;5093039;28;20356;-66
2023/09/29 03:22:43;;;;;;;4.47;3.05;;;;;;;18.20;71.38;101309.88;5107510;28;20049;-66
2023/09/29 03:25:16;;;;;;;5.57;3.10;;;;;;;18.17;71.58;101308.47;5113651;28;20036;-66
2023/09/29 03:27:43;;;;;;;5.43;2.80;;;;;;;18.17;71.57;101307.66;5113397;28;20070;-66
2023/09/29 03:30:09;;;;;;;6.80;2.97;;;;;;;18.19;71.52;101297.78;5112713;28;20073;-66
2023/09/29 03:32:35;;;;;;;6.68;3.25;;;;;;;18.17;71.81;101299.22;5098771;28;20104;-66
2023/09/29 03:35:00;;;;;;;4.88;2.90;;;;;;;18.17;71.80;101285.16;5113282;28;20438;-66
2023/09/29 03:37:29;;;;;;;5.57;3.22;;;;;;;18.14;72.17;101283.78;5101824;28;20448;-66
2023/09/29 03:39:55;;;;;;;7.10;3.10;;;;;;;18.14;72.11;101284.59;5093021;28;20118;-66
2023/09/29 03:42:21;;;;;;;5.75;3.13;;;;;;;18.16;72.26;101275.91;5092262;28;20031;-67
2023/09/29 03:44:47;;;;;;;7.13;2.80;;;;;;;18.19;72.27;101268.84;5092579;28;20036;-66
2023/09/29 03:47:12;;;;;;;5.38;3.33;;;;;;;18.18;72.44;101256.75;5091737;28;20043;-66
2023/09/29 03:49:38;;;;;;;5.82;2.72;;;;;;;18.15;72.64;101263.81;5095119;28;20470;-66
2023/09/29 03:52:08;;;;;;;5.50;2.70;;;;;;;18.13;72.91;101251.19;5094519;28;20081;-67
2023/09/29 03:54:34;;;;;;;3.53;2.83;;;;;;;18.16;72.78;101259.03;5092395;28;20479;-66
2023/09/29 03:57:03;;;;;;;4.43;2.95;;;;;;;18.17;72.92;101257.91;5092691;28;20039;-66
2023/09/29 03:59:28;;;;;;;6.15;2.65;;;;;;;18.15;73.09;101258.19;5091504;28;20077;-66
2023/09/29 04:01:57;;;;;;;6.32;2.83;;;;;;;18.16;73.11;101259.03;5092103;28;20043;-66
2023/09/29 04:04:22;;;;;;;4.28;2.88;;;;;;;18.18;73.21;101253.97;5092254;28;20085;-67
2023/09/29 04:06:47;;;;;;;6.72;3.13;;;;;;;18.17;72.95;101246.66;5100073;28;20028;-66
2023/09/29 04:09:13;;;;;;;4.38;3.15;;;;;;;18.14;73.37;101247.25;5095603;28;20027;-66
2023/09/29 04:11:40;;;;;;;6.75;3.30;;;;;;;18.17;73.66;101238.25;5090804;28;20064;-66
2023/09/29 04:14:05;;;;;;;6.65;2.90;;;;;;;18.16;73.63;101242.19;5092237;28;20038;-66
2023/09/29 04:16:31;;;;;;;4.32;2.78;;;;;;;18.17;73.91;101241.06;5102559;28;20027;-66
2023/09/29 04:18:56;;;;;;;5.38;3.38;;;;;;;18.18;74.03;101253.97;5091223;28;20043;-66
2023/09/29 04:21:21;;;;;;;3.60;2.60;;;;;;;18.17;74.07;101243.84;5091957;28;20415;-65
2023/09/29 04:23:47;;;;;;;4.50;2.78;;;;;;;18.16;74.53;101242.19;5091277;28;20055;-67
2023/09/29 04:26:18;;;;;;;3.50;2.72;;;;;;;18.16;74.43;101245.00;5093181;28;20020;-66
2023/09/29 04:28:44;;;;;;;4.10;2.85;;;;;;;18.19;74.49;101237.94;5094140;28;20039;-67
2023/09/29 04:31:10;;;;;;;6.25;3.20;;;;;;;18.15;74.49;101230.09;5098842;28;20036;-67
2023/09/29 04:33:35;;;;;;;4.53;2.78;;;;;;;18.17;74.84;101226.16;5091097;28;20035;-67
2023/09/29 04:36:00;;;;;;;6.47;2.90;;;;;;;18.14;74.91;101233.22;5091716;28;20105;-66
2023/09/29 04:38:26;;;;;;;6.22;2.72;;;;;;;18.14;74.72;101230.41;5092599;28;20028;-66
2023/09/29 04:40:51;;;;;;;4.78;3.03;;;;;;;18.17;75.15;101238.25;5090937;28;20111;-66
2023/09/29 04:43:18;;;;;;;5.85;3.00;;;;;;;18.19;74.81;101227.53;5095238;28;20108;-66
2023/09/29 04:45:43;;;;;;;6.40;2.97;;;;;;;18.19;75.06;101229.50;5091578;28;20089;-66
2023/09/29 04:48:08;;;;;;;7.18;3.33;;;;;;;18.19;75.28;101218.25;5091862;28;20475;-66
2023/09/29 04:50:34;;;;;;;5.78;3.30;;;;;;;18.20;75.06;101222.78;5091200;28;20062;-66
2023/09/29 04:53:02;;;;;;;6.13;3.53;;;;;;;18.16;75.51;101236.56;5091557;28;20024;-66
2023/09/29 04:55:28;;;;;;;6.90;3.13;;;;;;;18.15;75.78;101237.69;5088988;28;20105;-67
2023/09/29 04:57:54;;;;;;;5.60;3.25;;;;;;;18.19;75.56;101241.56;5091035;28;20038;-67
2023/09/29 05:00:20;;;;;;;6.43;3.22;;;;;;;18.18;76.29;101225.03;5091268;28;20024;-67
2023/09/29 05:02:46;;;;;;;5.10;3.00;;;;;;;18.16;76.22;101230.94;5097786;28;20032;-67
2023/09/29 05:05:11;;;;;;;4.93;2.80;;;;;;;18.20;76.16;101225.59;5096024;28;20086;-66
2023/09/29 05:07:37;;;;;;;5.82;3.03;;;;;;;18.15;76.81;101226.44;5096099;28;20051;-65
2023/09/29 05:10:05;;;;;;;5.80;2.88;;;;;;;18.15;76.71;101224.47;5111722;28;20024;-67
2023/09/29 05:12:32;;;;;;;5.68;3.42;;;;;;;18.17;76.97;101220.56;5106660;28;20487;-67
2023/09/29 05:14:57;;;;;;;5.88;2.55;;;;;;;18.18;76.97;101220.25;5090533;28;20032;-67
2023/09/29 05:17:23;;;;;;;6.75;3.05;;;;;;;18.17;77.13;101215.75;5094031;28;20375;-66
2023/09/29 05:19:48;;;;;;;4.55;2.88;;;;;;;18.18;77.32;101209.00;5094451;28;20035;-66
2023/09/29 05:22:14;;;;;;;4.90;2.80;;;;;;;18.18;77.61;101206.19;5103303;28;20054;-67
2023/09/29 05:24:39;;;;;;;7.68;3.22;;;;;;;18.19;77.52;101204.22;5098400;28;20040;-67
2023/09/29 05:27:10;;;;;;;5.15;2.60;;;;;;;18.18;77.46;101205.34;5090860;28;20036;-67
2023/09/29 05:29:39;;;;;;;5.15;2.80;;;;;;;18.21;77.94;101199.16;5089317;28;20453;-67
2023/09/29 05:32:08;;;;;;;6.50;3.15;;;;;;;18.19;77.95;101201.41;5091070;28;20147;-67
2023/09/29 05:34:34;;;;;;;6.53;3.20;;;;;;;18.20;77.88;101201.13;5099780;28;20077;-68
2023/09/29 05:36:59;;;;;;;8.00;3.53;;;;;;;18.23;77.97;101202.50;5109164;28;20059;-68
2023/09/29 05:39:24;;;;;;;5.55;3.55;;;;;;;18.22;78.09;101207.28;5093172;28;20031;-67
2023/09/29 05:41:50;;;;;;;4.50;2.78;;;;;;;18.20;78.40;101200.31;5090593;28;20028;-67
2023/09/29 05:44:15;;;;;;;5.93;3.15;;;;;;;18.19;78.74;101205.06;5089967;28;20031;-67
2023/09/29 05:46:40;;;;;;;4.45;3.17;;;;;;;18.21;78.65;101199.16;5090458;28;20482;-67
2023/09/29 05:49:06;;;;;;;5.25;3.25;;;;;;;18.22;78.51;101198.84;5094695;28;20443;-67
2023/09/29 05:51:34;;;;;;;4.60;2.65;;;;;;;18.23;78.64;101203.31;5088759;28;20483;-67
2023/09/29 05:54:02;;;;;;;6.55;3.10;;;;;;;18.24;79.04;101202.22;5087565;28;20107;-67
2023/09/29 05:56:29;;;;;;;5.05;3.20;;;;;;;18.25;79.14;101201.06;5090719;28;20116;-69
2023/09/29 05:58:55;;;;;;;5.88;3.30;;;;;;;18.27;78.87;101209.19;5084789;28;20066;-68
2023/09/29 06:01:21;;;;;;;6.80;2.65;;;;;;;18.28;79.20;101208.09;5091816;28;20539;-67
2023/09/29 06:03:46;;;;;;;9.32;2.90;;;;;;;18.29;79.27;101204.13;5094466;28;20043;-67
2023/09/29 06:06:11;;;;;;;7.63;3.05;;;;;;;18.29;79.09;101204.97;5095164;28;20391;-68
2023/09/29 06:08:37;;;;;;;4.45;2.90;;;;;;;18.31;79.34;101208.34;5092929;28;20032;-66
2023/09/29 06:11:03;;;;;;;3.90;2.58;;;;;;;18.31;79.47;101204.66;5093434;28;20033;-68
2023/09/29 06:13:29;;;;;;;4.45;2.92;;;;;;;18.33;79.72;101219.25;5090859;28;20054;-68
2023/09/29 06:15:56;;;;;;;3.97;2.75;;;;;;;18.32;79.74;101224.06;5090678;28;20020;-66
2023/09/29 06:18:21;;;;;;;5.97;3.30;;;;;;;18.32;79.98;101229.66;5101968;28;20470;-67
2023/09/29 06:20:47;;;;;;;3.40;2.80;;;;;;;18.37;79.70;101225.97;5095336;28;20055;-67
2023/09/29 06:23:12;;;;;;;7.18;2.63;;;;;;;18.34;80.14;101221.75;5101652;28;20134;-67
2023/09/29 06:25:37;;;;;;;5.78;2.53;;;;;;;18.36;79.93;101225.13;5106687;28;20027;-68
2023/09/29 06:28:03;;;;;;;4.97;2.72;;;;;;;18.36;79.94;101213.88;5088723;28;20032;-68
2023/09/29 06:30:31;;;;;;;5.85;2.85;;;;;;;18.39;79.93;101213.31;5101976;28;20024;-67
2023/09/29 06:32:57;;;;;;;4.45;2.70;;;;;;;18.39;79.87;101213.31;5090445;28;20071;-67
2023/09/29 06:35:22;;;;;;;3.13;2.83;;;;;;;18.43;80.46;101216.38;5099209;28;20054;-68
2023/09/29 06:37:53;;;;;;;5.35;2.95;;;;;;;18.42;80.58;101216.63;5096276;28;20031;-67
2023/09/29 06:40:19;;;;;;;5.22;2.90;;;;;;;18.46;80.71;101218.56;5101892;28;20047;-66
2023/09/29 06:42:44;;;;;;;5.32;2.97;;;;;;;18.46;80.45;101217.72;5099936;28;20024;-67
2023/09/29 06:45:09;;;;;;;4.07;2.70;;;;;;;18.47;80.57;101225.00;5093054;28;20040;-68
2023/09/29 06:47:35;;;;;;;3.85;2.72;;;;;;;18.50;80.86;101230.88;5099121;28;20084;-68
2023/09/29 06:50:00;;;;;;;4.30;2.65;;;;;;;18.52;80.50;101237.06;5096457;28;20066;-66
2023/09/29 06:52:26;;;;;;;5.07;2.50;;;;;;;18.54;80.89;101228.31;5101367;28;20020;-69
2023/09/29 06:54:51;;;;;;;7.00;3.10;;;;;;;18.57;80.60;101238.97;5105152;28;20137;-68
2023/09/29 06:57:16;;;;;;;8.82;3.28;;;;;;;18.56;81.07;101234.50;5094460;28;20082;-67
2023/09/29 06:59:42;;;;;;;5.95;2.92;;;;;;;18.58;81.11;101232.19;5095863;28;20084;-67
2023/09/29 07:02:07;;;;;;;4.72;2.42;;;;;;;18.59;81.09;101233.91;5092080;28;20042;-66
2023/09/29 07:04:33;;;;;;;6.13;2.40;;;;;;;18.60;81.06;101242.03;5092459;28;20063;-68
2023/09/29 07:07:01;;;;;;;5.95;3.00;;;;;;;18.62;80.91;101238.91;5104214;28;20083;-69
2023/09/29 07:09:28;;;;;;;5.50;2.70;;;;;;;18.64;81.10;101242.28;5095917;28;20749;-67
2023/09/29 07:11:54;;;;;;;5.43;2.42;;;;;;;18.64;80.77;101239.47;5108728;28;20043;-67
2023/09/29 07:14:22;;;;;;;4.50;2.50;;;;;;;18.65;80.76;101244.78;5094111;28;20101;-66
2023/09/29 07:16:49;;;;;;;6.20;3.28;;;;;;;18.67;80.94;101238.88;5093004;28;20032;-67
2023/09/29 07:19:16;;;;;;;4.32;2.78;;;;;;;18.70;81.06;101234.59;5112770;28;20447;-68
2023/09/29 07:21:41;;;;;;;7.05;2.72;;;;;;;18.71;80.70;101241.97;5101886;28;20036;-67
2023/09/29 07:24:08;;;;;;;4.47;2.40;;;;;;;18.73;80.53;101237.69;5092327;28;20044;-67
2023/09/29 07:26:33;;;;;;;4.45;2.47;;;;;;;18.74;80.79;101242.16;5095531;28;20470;-71
2023/09/29 07:29:01;;;;;;;4.50;2.47;;;;;;;18.79;80.50;101249.72;5098514;28;20034;-67
2023/09/29 07:31:36;;;;;;;5.22;2.83;;;;;;;18.82;80.59;101254.75;5099034;28;20156;-67
2023/09/29 07:34:02;;;;;;;4.72;2.45;;;;;;;18.87;80.30;101246.25;5107347;28;20498;-67
2023/09/29 07:36:31;;;;;;;4.15;2.72;;;;;;;18.93;80.27;101247.84;5103220;28;20024;-67
2023/09/29 07:38:57;;;;;;;3.67;2.28;;;;;;;18.98;80.03;101241.31;5096752;28;20040;-68
2023/09/29 07:41:32;;;;;;;4.95;2.90;;;;;;;19.04;79.38;101257.03;5107315;28;20088;-67
2023/09/29 07:44:03;;;;;;;5.18;2.65;;;;;;;19.09;79.75;101246.53;5095765;28;20047;-67
2023/09/29 07:46:31;;;;;;;5.57;2.75;;;;;;;19.19;79.35;101253.19;5097918;28;20028;-67
2023/09/29 07:48:57;;;;;;;4.35;2.70;;;;;;;19.25;79.22;101249.13;5093059;28;20024;-68
2023/09/29 07:51:24;;;;;;;4.05;2.60;;;;;;;19.33;78.72;101252.13;5102248;28;20032;-67
2023/09/29 07:53:50;;;;;;;6.70;2.80;;;;;;;19.42;78.50;101248.66;5096453;28;20032;-66
2023/09/29 07:56:18;;;;;;;5.72;2.75;;;;;;;19.52;77.95;101259.75;5091073;28;20024;-66
2023/09/29 07:58:43;;;;;;;5.28;2.63;;;;;;;19.58;78.06;101256.56;5091696;28;20057;-67
2023/09/29 08:01:09;;;;;;;5.35;2.45;;;;;;;19.67;77.83;101258.72;5091788;28;20107;-67
2023/09/29 08:03:42;;;;;;;5.22;2.63;;;;;;;19.76;77.53;101262.53;5090671;28;20185;-67
2023/09/29 08:06:08;;;;;;;4.15;2.25;;;;;;;19.83;76.94;101268.63;5091593;28;20059;-67
2023/09/29 08:08:33;;;;;;;5.63;2.25;;;;;;;19.90;76.63;101271.88;5102196;28;20114;-67
2023/09/29 08:10:59;;;;;;;4.93;2.55;;;;;;;19.94;76.30;101263.66;5094025;28;20173;-67
2023/09/29 08:13:25;;;;;;;7.30;2.75;;;;;;;19.97;76.26;101271.50;5091360;28;20032;-67
2023/09/29 08:15:56;;;;;;;4.65;2.40;;;;;;;20.01;76.29;101272.56;5091561;28;20059;-67
2023/09/29 08:18:21;;;;;;;6.35;2.65;;;;;;;20.04;75.80;101277.56;5090138;28;20028;-67
2023/09/29 08:20:54;;;;;;;3.55;2.28;;;;;;;20.10;75.90;101287.63;5091347;28;20051;-67
2023/09/29 08:23:20;;;;;;;4.63;2.53;;;;;;;20.13;75.16;101281.38;5090381;28;20471;-67
2023/09/29 08:25:48;;;;;;;3.30;2.38;;;;;;;20.18;75.48;101292.56;5089072;28;20031;-67
2023/09/29 08:28:14;;;;;;;4.43;2.40;;;;;;;20.21;74.56;101293.94;5091628;28;20039;-67
2023/09/29 08:30:40;;;;;;;5.82;2.70;;;;;;;20.28;75.09;101294.38;5090849;28;20020;-67
2023/09/29 08:33:05;;;;;;;4.07;2.30;;;;;;;20.30;74.83;101306.19;5090542;28;20380;-67
2023/09/29 08:35:31;;;;;;;4.65;2.53;;;;;;;20.30;74.64;101301.38;5090917;28;20062;-69
2023/09/29 08:37:57;;;;;;;6.10;2.88;;;;;;;20.28;74.61;101303.69;5090382;28;20036;-67
2023/09/29 08:40:22;;;;;;;5.72;2.83;;;;;;;20.27;74.58;101304.81;5109931;28;20130;-67
2023/09/29 08:42:51;;;;;;;6.07;2.60;;;;;;;20.26;74.84;101308.78;5111439;28;20024;-67
2023/09/29 08:45:18;;;;;;;2.88;2.50;;;;;;;20.23;74.83;101306.56;5094425;28;20437;-67
2023/09/29 08:47:53;;;;;;;4.90;2.67;;;;;;;20.20;75.17;101318.47;5089990;28;20032;-67
2023/09/29 08:50:24;;;;;;;4.68;2.90;;;;;;;20.17;74.98;101316.25;5090323;28;20035;-67
2023/09/29 08:52:51;;;;;;;6.72;2.90;;;;;;;20.16;74.83;101325.00;5089812;28;20495;-67
2023/09/29 08:55:17;;;;;;;5.85;2.60;;;;;;;20.14;75.01;101325.31;5091190;28;20337;-67
2023/09/29 08:57:43;;;;;;;6.57;3.05;;;;;;;20.14;75.12;101322.50;5090607;28;20032;-67
2023/09/29 09:00:13;;;;;;;5.80;3.15;;;;;;;20.16;74.95;101323.06;5090264;28;20048;-67
2023/09/29 09:02:42;;;;;;;6.65;2.92;;;;;;;20.20;74.88;101326.06;5090538;28;20109;-67
2023/09/29 09:05:11;;;;;;;4.85;3.03;;;;;;;20.20;74.95;101328.88;5090730;28;20132;-67
2023/09/29 09:07:38;;;;;;;7.90;2.72;;;;;;;20.20;75.14;101317.63;5088769;28;20035;-67
2023/09/29 09:10:04;;;;;;;5.93;3.30;;;;;;;20.21;75.22;101327.75;5090527;28;20387;-67
2023/09/29 09:12:36;;;;;;;6.20;2.90;;;;;;;20.21;74.91;101334.22;5096758;28;20035;-67
2023/09/29 09:15:07;;;;;;;8.13;3.25;;;;;;;20.19;74.57;101332.84;5109249;28;20027;-67
2023/09/29 09:17:34;;;;;;;6.15;2.65;;;;;;;20.19;74.51;101341.31;5096963;28;20032;-67
2023/09/29 09:20:00;;;;;;;5.30;2.80;;;;;;;20.16;74.41;101336.28;5090641;28;20029;-67
2023/09/29 09:22:31;;;;;;;4.82;2.92;;;;;;;20.15;74.64;101337.44;5091693;28;20121;-66
2023/09/29 09:25:01;;;;;;;6.38;2.80;;;;;;;20.14;75.08;101349.84;5090197;28;20040;-67
2023/09/29 09:27:39;;;;;;;5.78;2.53;;;;;;;20.11;75.04;101351.28;5090135;28;20021;-67
2023/09/29 09:30:05;;;;;;;3.83;2.53;;;;;;;20.09;75.38;101353.59;5090471;28;20038;-66
2023/09/29 09:32:31;;;;;;;8.85;2.85;;;;;;;20.07;75.14;101353.88;5090759;28;20032;-67
2023/09/29 09:34:58;;;;;;;6.30;2.97;;;;;;;20.08;75.32;101349.06;5089156;28;20491;-67
2023/09/29 09:37:27;;;;;;;4.90;2.90;;;;;;;20.09;75.48;101353.59;5099528;28;20047;-66
2023/09/29 09:39:55;;;;;;;6.50;2.80;;;;;;;20.08;75.80;101357.53;5094565;28;20028;-67
2023/09/29 09:42:24;;;;;;;6.18;2.55;;;;;;;20.09;75.85;101362.06;5093642;28;20084;-67
2023/09/29 09:44:50;;;;;;;5.43;2.85;;;;;;;20.09;75.93;101362.06;5094003;28;20032;-67
2023/09/29 09:47:16;;;;;;;6.57;2.92;;;;;;;20.08;75.96;101361.22;5103854;28;20335;-67
2023/09/29 09:49:50;;;;;;;5.43;2.70;;;;;;;20.07;75.63;101365.16;5113517;28;20034;-68
2023/09/29 09:52:29;;;;;;;6.40;2.55;;;;;;;20.06;75.62;101368.28;5103725;28;20106;-61
2023/09/29 09:54:58;;;;;;;7.20;2.97;;;;;;;20.05;75.81;101373.09;5095913;28;20055;-61
2023/09/29 09:57:33;;;;;;;6.70;2.97;;;;;;;20.05;75.75;101377.91;5089939;28;20031;-61
2023/09/29 10:00:08;;;;;;;5.35;2.70;;;;;;;20.04;75.53;101382.69;5100845;28;20031;-67
2023/09/29 10:02:46;;;;;;;8.48;3.30;;;;;;;20.06;75.92;101393.66;5096634;28;20440;-66
2023/09/29 10:05:23;;;;;;;5.38;2.70;;;;;;;20.08;76.11;101394.16;5092903;28;20029;-67
2023/09/29 10:08:02;;;;;;;5.25;2.60;;;;;;;20.08;76.14;101396.97;5100373;28;20784;-68
2023/09/29 10:10:31;;;;;;;8.52;3.28;;;;;;;20.07;76.26;101392.50;5095282;28;20098;-68
2023/09/29 10:12:57;;;;;;;8.00;3.10;;;;;;;20.08;76.51;101394.16;5099842;28;20443;-68
2023/09/29 10:15:22;;;;;;;6.60;3.30;;;;;;;20.05;76.44;101392.81;5096847;28;20023;-67
2023/09/29 10:17:49;;;;;;;7.03;2.97;;;;;;;20.06;76.61;101402.09;5092182;28;20026;-61
2023/09/29 10:20:19;;;;;;;5.78;2.92;;;;;;;20.06;76.86;101396.47;5095768;28;20024;-61
2023/09/29 10:22:46;;;;;;;8.40;2.92;;;;;;;20.05;76.59;101401.28;5094849;28;20048;-61
2023/09/29 10:25:19;;;;;;;6.68;3.13;;;;;;;20.06;76.57;101391.66;5095483;28;20143;-62
2023/09/29 10:27:49;;;;;;;6.35;3.05;;;;;;;20.06;76.14;101390.84;5092983;28;20032;-61
2023/09/29 10:30:18;;;;;;;9.27;2.92;;;;;;;20.05;76.31;101406.06;5090973;28;20483;-61
2023/09/29 10:32:45;;;;;;;6.10;3.30;;;;;;;20.06;76.27;101393.66;5095870;28;20038;-60
2023/09/29 10:35:18;;;;;;;9.18;3.42;;;;;;;20.07;76.42;101413.06;5100842;28;20028;-60
2023/09/29 10:37:45;;;;;;;5.50;3.13;;;;;;;20.08;76.22;101411.06;5093108;28;20026;-61
2023/09/29 10:40:34;;;;;;;4.75;3.20;;;;;;;20.10;75.78;101414.44;5092306;28;20180;-60
2023/09/29 10:43:02;;;;;;;7.07;3.10;;;;;;;20.07;76.30;101410.25;5096868;28;20127;-60
2023/09/29 10:45:36;;;;;;;10.88;3.50;;;;;;;20.09;76.35;101421.22;5093205;28;20138;-66
2023/09/29 10:48:02;;;;;;;7.03;2.85;;;;;;;20.09;76.53;101416.44;5102339;28;20032;-66
2023/09/29 10:50:28;;;;;;;7.90;3.20;;;;;;;20.09;76.79;101422.06;5092554;28;20059;-66
2023/09/29 10:52:55;;;;;;;6.78;3.05;;;;;;;20.08;76.49;101413.91;5097907;28;20106;-66
2023/09/29 10:55:23;;;;;;;7.07;3.05;;;;;;;20.08;76.15;101425.16;5108922;28;20043;-67
2023/09/29 10:57:50;;;;;;;6.78;2.63;;;;;;;20.08;76.32;101423.22;5094873;28;20233;-66
2023/09/29 11:00:15;;;;;;;5.93;2.63;;;;;;;20.09;76.01;101440.97;5096894;28;20024;-66
2023/09/29 11:02:41;;;;;;;6.35;2.83;;;;;;;20.09;76.35;101435.31;5091497;28;20031;-66
2023/09/29 11:05:09;;;;;;;5.13;2.92;;;;;;;20.14;77.45;101431.59;5092964;28;20028;-67
2023/09/29 11:07:50;;;;;;;6.60;2.80;;;;;;;20.23;77.13;101432.56;5093626;28;20040;-67
2023/09/29 11:10:19;;;;;;;3.95;2.50;;;;;;;20.28;76.87;101427.72;5091784;28;20027;-67
2023/09/29 11:12:49;;;;;;;7.97;2.72;;;;;;;20.29;76.86;101443.47;5093894;28;20032;-66
2023/09/29 11:15:16;;;;;;;5.20;2.70;;;;;;;20.34;76.31;101440.56;5096940;28;20032;-67
2023/09/29 11:17:50;;;;;;;4.28;2.35;;;;;;;20.40;76.51;101451.81;5095875;28;20046;-69
2023/09/29 11:20:25;;;;;;;2.85;2.10;;;;;;;20.39;76.18;101450.94;5089718;28;20036;-67
2023/09/29 11:23:06;;;;;;;6.07;2.40;;;;;;;20.41;76.21;101453.47;5093115;28;20040;-67
2023/09/29 11:25:31;;;;;;;4.07;2.00;;;;;;;20.41;77.83;101450.66;5091853;28;20060;-66